Terminal Aerodrome Forecast
Issued by NWS

Home | Current Version | Previous Version | Text Only | Print | Product List | Glossary On
Versions: 1 2 3 4 5 6 7 8 9 10 11 12 13
000
FTUS44 KEPZ 221737
TAFTCS
TAF
KTCS 221737Z 2218/2318 16009KT P6SM SCT040 SCT120 BKN250
     FM222200 23009KT P6SM VCTS SCT050CB BKN100 BKN200
      TEMPO 2300/2304 VRB27G37KT 4SM TSRA BKN030CB OVC080
     FM230400 28008KT P6SM -SHRA SCT030 BKN050 OVC100
     FM231200 05008KT P6SM VCTS SCT040CB BKN070 BKN120=

USA.gov is the U.S. government's official web portal to all federal, state and local government web resources and services.